createdAt,value
2023-05-10T00:00:32.931Z,9.60
2023-05-10T00:02:59.981Z,9.70
2023-05-10T00:05:26.900Z,9.70
2023-05-10T00:07:53.779Z,9.70
2023-05-10T00:10:20.866Z,9.70
2023-05-10T00:12:47.711Z,9.70
2023-05-10T00:15:14.725Z,9.70
2023-05-10T00:17:41.729Z,9.70
2023-05-10T00:20:09.187Z,9.70
2023-05-10T00:22:36.475Z,9.60
2023-05-10T00:25:03.762Z,9.60
2023-05-10T00:27:30.684Z,9.70
2023-05-10T00:29:57.565Z,9.70
2023-05-10T00:32:24.498Z,9.60
2023-05-10T00:34:52.050Z,9.60
2023-05-10T00:37:18.918Z,9.50
2023-05-10T00:39:45.955Z,9.50
2023-05-10T00:42:12.835Z,9.50
2023-05-10T00:44:39.807Z,9.40
2023-05-10T00:47:07.736Z,9.40
2023-05-10T00:49:36.658Z,9.30
2023-05-10T00:52:04.079Z,9.30
2023-05-10T00:54:31.349Z,9.40
2023-05-10T00:56:58.393Z,9.40
2023-05-10T00:59:25.522Z,9.40
2023-05-10T01:01:52.992Z,9.40
2023-05-10T01:04:26.537Z,9.40
2023-05-10T01:06:54.732Z,9.30
2023-05-10T01:09:22.674Z,9.30
2023-05-10T01:11:50.498Z,9.40
2023-05-10T01:14:20.885Z,9.40
2023-05-10T01:16:49.426Z,9.40
2023-05-10T01:19:22.219Z,9.40
2023-05-10T01:22:14.056Z,9.40
2023-05-10T01:25:04.063Z,9.40
2023-05-10T01:27:47.498Z,9.50
2023-05-10T01:30:23.914Z,9.50
2023-05-10T01:33:17.491Z,9.60
2023-05-10T01:35:58.066Z,9.50
2023-05-10T01:38:40.199Z,9.50
2023-05-10T01:41:18.990Z,9.50
2023-05-10T01:44:10.278Z,9.50
2023-05-10T01:46:39.490Z,9.40
2023-05-10T01:49:15.358Z,9.40
2023-05-10T01:51:55.714Z,9.40
2023-05-10T01:54:24.641Z,9.40
2023-05-10T01:57:00.505Z,9.40
2023-05-10T01:59:32.753Z,9.40
2023-05-10T02:02:02.219Z,9.30
2023-05-10T02:04:29.855Z,9.20
2023-05-10T02:06:57.435Z,9.20
2023-05-10T02:09:28.227Z,9.30
2023-05-10T02:11:56.179Z,9.20
2023-05-10T02:14:25.417Z,9.00
2023-05-10T02:16:54.257Z,9.00
2023-05-10T02:19:22.852Z,8.80
2023-05-10T02:21:52.228Z,8.60
2023-05-10T02:24:20.110Z,8.50
2023-05-10T02:26:50.089Z,8.50
2023-05-10T02:29:18.386Z,8.40
2023-05-10T02:31:46.729Z,8.30
2023-05-10T02:34:14.655Z,8.20
2023-05-10T02:36:42.681Z,8.10
2023-05-10T02:39:13.691Z,8.10
2023-05-10T02:41:43.125Z,8.00
2023-05-10T02:44:11.887Z,7.90
2023-05-10T02:46:39.115Z,7.90
2023-05-10T02:49:06.860Z,7.80
2023-05-10T02:51:37.448Z,7.60
2023-05-10T02:54:28.493Z,7.60
2023-05-10T02:57:01.676Z,7.50
2023-05-10T02:59:28.622Z,7.50
2023-05-10T03:01:55.579Z,7.50
2023-05-10T03:04:23.230Z,7.50
2023-05-10T03:06:51.634Z,7.40
2023-05-10T03:09:18.745Z,7.40
2023-05-10T03:12:13.658Z,7.30
2023-05-10T03:14:54.380Z,7.30
2023-05-10T03:17:42.193Z,7.30
2023-05-10T03:20:12.739Z,7.20
2023-05-10T03:22:45.525Z,7.10
2023-05-10T03:25:13.296Z,7.10
2023-05-10T03:27:43.662Z,7.10
2023-05-10T03:30:13.197Z,7.10
2023-05-10T03:32:40.872Z,7.10
2023-05-10T03:35:09.715Z,7.00
2023-05-10T03:37:37.471Z,6.90
2023-05-10T03:40:05.188Z,6.90
2023-05-10T03:42:34.454Z,6.80
2023-05-10T03:45:01.491Z,6.80
2023-05-10T03:47:28.470Z,6.80
2023-05-10T03:49:55.353Z,6.80
2023-05-10T03:52:23.010Z,6.80
2023-05-10T03:54:49.848Z,6.90
2023-05-10T03:57:16.991Z,6.90
2023-05-10T03:59:43.864Z,6.90
2023-05-10T04:02:10.720Z,6.90
2023-05-10T04:04:37.553Z,6.90
2023-05-10T04:07:04.545Z,6.90
2023-05-10T04:09:31.495Z,6.90
2023-05-10T04:11:59.933Z,6.80
2023-05-10T04:14:26.906Z,6.80
2023-05-10T04:16:53.771Z,6.80
2023-05-10T04:19:21.182Z,6.80
2023-05-10T04:21:48.057Z,6.90
2023-05-10T04:24:15.190Z,6.90
2023-05-10T04:26:42.170Z,6.90
2023-05-10T04:29:08.962Z,7.00
2023-05-10T04:31:37.332Z,7.00
2023-05-10T04:34:04.340Z,7.00
2023-05-10T04:36:31.330Z,7.10
2023-05-10T04:38:58.206Z,7.20
2023-05-10T04:41:26.285Z,7.20
2023-05-10T04:43:53.458Z,7.30
2023-05-10T04:46:20.460Z,7.30
2023-05-10T04:48:47.357Z,7.40
2023-05-10T04:51:14.498Z,7.40
2023-05-10T04:53:43.015Z,7.30
2023-05-10T04:56:11.465Z,7.30
2023-05-10T04:58:38.409Z,7.20
2023-05-10T05:01:09.559Z,7.20
2023-05-10T05:03:36.754Z,7.20
2023-05-10T05:06:04.466Z,7.30
2023-05-10T05:08:32.205Z,7.50
2023-05-10T05:11:00.342Z,7.60
2023-05-10T05:13:27.318Z,7.60
2023-05-10T05:15:54.596Z,7.80
2023-05-10T05:18:21.542Z,7.90
2023-05-10T05:20:48.357Z,8.00
2023-05-10T05:23:15.249Z,8.10
2023-05-10T05:25:43.132Z,8.20
2023-05-10T05:28:10.056Z,8.30
2023-05-10T05:30:37.035Z,8.30
2023-05-10T05:33:04.145Z,8.40
2023-05-10T05:35:31.073Z,8.50
2023-05-10T05:37:58.109Z,8.70
2023-05-10T05:40:24.954Z,8.80
2023-05-10T05:42:51.914Z,8.90
2023-05-10T05:45:19.169Z,9.00
2023-05-10T05:47:46.338Z,9.00
2023-05-10T05:50:13.475Z,9.20
2023-05-10T05:52:40.335Z,9.20
2023-05-10T05:55:07.419Z,9.30
2023-05-10T05:57:34.990Z,9.40
2023-05-10T06:00:03.428Z,9.40
2023-05-10T06:02:39.584Z,9.50
2023-05-10T06:05:07.076Z,9.60
2023-05-10T06:07:34.014Z,9.60
2023-05-10T06:10:00.965Z,9.70
2023-05-10T06:12:27.831Z,9.70
2023-05-10T06:14:54.795Z,9.90
2023-05-10T06:17:22.665Z,10.00
2023-05-10T06:19:49.620Z,10.20
2023-05-10T06:22:16.449Z,10.30
2023-05-10T06:24:43.381Z,10.40
2023-05-10T06:27:10.275Z,10.50
2023-05-10T06:29:37.224Z,10.60
2023-05-10T06:32:04.254Z,10.60
2023-05-10T06:34:31.335Z,10.70
2023-05-10T06:36:58.352Z,10.80
2023-05-10T06:39:25.229Z,10.90
2023-05-10T06:41:52.201Z,11.00
2023-05-10T06:44:19.907Z,11.00
2023-05-10T06:46:46.831Z,11.10
2023-05-10T06:49:13.788Z,11.20
2023-05-10T06:51:41.249Z,11.30
2023-05-10T06:54:08.115Z,11.30
2023-05-10T06:56:34.928Z,11.40
2023-05-10T06:59:01.966Z,11.50
2023-05-10T07:01:29.034Z,11.60
2023-05-10T07:03:56.433Z,11.70
2023-05-10T07:06:32.960Z,11.80
2023-05-10T07:09:01.407Z,11.90
2023-05-10T07:11:28.515Z,12.00
2023-05-10T07:13:55.362Z,12.10
2023-05-10T07:16:22.969Z,12.20
2023-05-10T07:18:51.709Z,12.20
2023-05-10T07:21:18.826Z,12.30
2023-05-10T07:23:45.902Z,12.30
2023-05-10T07:26:12.954Z,12.40
2023-05-10T07:28:40.124Z,12.40
2023-05-10T07:31:07.096Z,12.40
2023-05-10T07:33:34.075Z,12.50
2023-05-10T07:36:01.408Z,12.50
2023-05-10T07:38:28.458Z,12.50
2023-05-10T07:40:55.259Z,12.60
2023-05-10T07:43:22.035Z,12.70
2023-05-10T07:45:49.089Z,12.80
2023-05-10T07:48:16.051Z,12.80
2023-05-10T07:50:43.191Z,12.90
2023-05-10T07:53:10.387Z,13.00
2023-05-10T07:55:37.500Z,13.20
2023-05-10T07:58:04.624Z,13.40
2023-05-10T08:00:31.661Z,13.40
2023-05-10T08:02:58.595Z,13.60
2023-05-10T08:05:25.471Z,13.70
2023-05-10T08:07:52.469Z,13.80
2023-05-10T08:10:19.412Z,13.70
2023-05-10T08:12:46.311Z,13.70
2023-05-10T08:15:13.253Z,13.80
2023-05-10T08:17:40.451Z,13.90
2023-05-10T08:20:08.898Z,14.10
2023-05-10T08:22:35.894Z,14.10
2023-05-10T08:25:02.829Z,14.30
2023-05-10T08:27:29.737Z,14.40
2023-05-10T08:29:56.565Z,14.40
2023-05-10T08:32:23.751Z,14.40
2023-05-10T08:34:50.576Z,14.40
2023-05-10T08:37:18.095Z,14.50
2023-05-10T08:39:46.224Z,14.50
2023-05-10T08:42:14.093Z,14.40
2023-05-10T08:44:41.354Z,14.20
2023-05-10T08:47:10.129Z,14.20
2023-05-10T08:49:38.779Z,14.20
2023-05-10T08:52:08.392Z,14.30
2023-05-10T08:54:35.650Z,14.30
2023-05-10T08:57:02.990Z,14.30
2023-05-10T08:59:30.055Z,14.50
2023-05-10T09:01:59.036Z,14.60
2023-05-10T09:04:26.673Z,14.70
2023-05-10T09:06:55.201Z,15.00
2023-05-10T09:09:22.917Z,15.10
2023-05-10T09:11:50.133Z,15.20
2023-05-10T09:14:18.763Z,15.30
2023-05-10T09:16:46.037Z,15.40
2023-05-10T09:19:13.168Z,15.40
2023-05-10T09:21:40.291Z,15.40
2023-05-10T09:24:08.948Z,15.30
2023-05-10T09:26:37.266Z,15.20
2023-05-10T09:29:04.324Z,15.00
2023-05-10T09:31:47.607Z,15.00
2023-05-10T09:34:19.329Z,15.20
2023-05-10T09:37:01.740Z,15.40
2023-05-10T09:39:34.345Z,15.40
2023-05-10T09:42:04.938Z,15.50
2023-05-10T09:44:33.560Z,15.50
2023-05-10T09:47:01.409Z,15.60
2023-05-10T09:49:28.446Z,15.80
2023-05-10T09:52:09.023Z,15.90
2023-05-10T09:54:36.976Z,16.30
2023-05-10T09:57:04.283Z,16.50
2023-05-10T09:59:35.875Z,16.70
2023-05-10T10:02:03.990Z,16.80
2023-05-10T10:04:31.296Z,16.80
2023-05-10T10:07:06.207Z,16.80
2023-05-10T10:09:34.813Z,17.10
2023-05-10T10:12:03.114Z,17.10
2023-05-10T10:14:31.004Z,17.20
2023-05-10T10:17:07.588Z,17.10
2023-05-10T10:19:38.800Z,17.10
2023-05-10T10:22:06.816Z,17.10
2023-05-10T10:24:34.990Z,17.10
2023-05-10T10:27:29.494Z,16.90
2023-05-10T10:30:21.767Z,16.60
2023-05-10T10:33:28.812Z,16.70
2023-05-10T10:35:56.976Z,16.80
2023-05-10T10:38:24.671Z,16.90
2023-05-10T10:41:04.455Z,17.10
2023-05-10T10:43:31.520Z,17.00
2023-05-10T10:46:18.893Z,16.80
2023-05-10T10:49:09.968Z,16.80
2023-05-10T10:51:40.636Z,16.70
2023-05-10T10:54:13.950Z,16.90
2023-05-10T10:56:40.851Z,16.90
2023-05-10T10:59:09.493Z,17.10
2023-05-10T11:01:36.787Z,17.40
2023-05-10T11:04:06.860Z,17.50
2023-05-10T11:06:35.897Z,17.60
2023-05-10T11:09:12.460Z,17.40
2023-05-10T11:11:59.583Z,17.40
2023-05-10T11:14:26.926Z,17.30
2023-05-10T11:16:53.891Z,17.30
2023-05-10T11:19:21.013Z,17.20
2023-05-10T11:21:49.148Z,17.10
2023-05-10T11:24:17.198Z,17.10
2023-05-10T11:26:44.353Z,17.20
2023-05-10T11:29:13.101Z,17.40
2023-05-10T11:31:45.955Z,17.50
2023-05-10T11:34:13.783Z,17.30
2023-05-10T11:36:40.634Z,17.40
2023-05-10T11:39:07.664Z,17.40
2023-05-10T11:41:34.773Z,17.40
2023-05-10T11:44:02.737Z,17.50
2023-05-10T11:46:29.930Z,17.50
2023-05-10T11:49:02.825Z,17.50
2023-05-10T11:51:29.959Z,17.70
2023-05-10T11:53:58.478Z,17.80
2023-05-10T11:56:27.235Z,17.90
2023-05-10T11:58:56.850Z,18.00
2023-05-10T12:01:25.196Z,18.20
2023-05-10T12:03:53.977Z,18.30
2023-05-10T12:06:21.612Z,18.60
2023-05-10T12:08:53.408Z,18.80
2023-05-10T12:11:22.640Z,19.00
2023-05-10T12:13:50.839Z,19.10
2023-05-10T12:16:19.097Z,19.20
2023-05-10T12:18:46.571Z,19.30
2023-05-10T12:21:13.801Z,19.30
2023-05-10T12:23:41.060Z,19.40
2023-05-10T12:26:10.686Z,19.60
2023-05-10T12:28:38.560Z,19.60
2023-05-10T12:31:06.424Z,19.60
2023-05-10T12:33:45.702Z,19.70
2023-05-10T12:36:14.547Z,19.60
2023-05-10T12:38:48.893Z,19.50
2023-05-10T12:41:19.794Z,19.40
2023-05-10T12:43:47.454Z,19.20
2023-05-10T12:46:17.419Z,19.20
2023-05-10T12:48:45.584Z,19.30
2023-05-10T12:51:14.185Z,19.30
2023-05-10T12:53:44.203Z,19.30
2023-05-10T12:56:12.188Z,19.20
2023-05-10T12:58:39.678Z,19.20
2023-05-10T13:01:06.836Z,19.20
2023-05-10T13:03:33.971Z,19.20
2023-05-10T13:06:00.894Z,19.20
2023-05-10T13:08:28.036Z,19.20
2023-05-10T13:10:55.295Z,19.30
2023-05-10T13:13:22.136Z,19.40
2023-05-10T13:15:49.110Z,19.50
2023-05-10T13:18:16.209Z,19.40
2023-05-10T13:20:45.264Z,19.20
2023-05-10T13:23:12.198Z,19.10
2023-05-10T13:25:39.263Z,19.00
2023-05-10T13:28:06.154Z,18.80
2023-05-10T13:30:33.017Z,18.70
2023-05-10T13:32:59.977Z,18.60
2023-05-10T13:35:26.946Z,18.50
2023-05-10T13:37:54.550Z,18.50
2023-05-10T13:40:21.446Z,18.60
2023-05-10T13:42:48.330Z,18.70
2023-05-10T13:45:15.674Z,18.70
2023-05-10T13:47:43.177Z,18.70
2023-05-10T13:50:10.439Z,18.70
2023-05-10T13:52:37.341Z,18.70
2023-05-10T13:55:04.846Z,18.80
2023-05-10T13:57:31.915Z,18.80
2023-05-10T13:59:59.133Z,18.90
2023-05-10T14:02:28.514Z,19.10
2023-05-10T14:04:55.597Z,19.20
2023-05-10T14:07:22.743Z,19.10
2023-05-10T14:09:49.722Z,19.10
2023-05-10T14:12:17.351Z,19.00
2023-05-10T14:14:44.301Z,18.90
2023-05-10T14:17:12.503Z,18.70
2023-05-10T14:19:40.005Z,18.60
2023-05-10T14:22:07.083Z,18.50
2023-05-10T14:24:34.399Z,18.40
2023-05-10T14:27:01.504Z,18.40
2023-05-10T14:29:28.488Z,18.40
2023-05-10T14:31:55.760Z,18.50
2023-05-10T14:34:22.745Z,18.70
2023-05-10T14:36:49.736Z,18.60
2023-05-10T14:39:16.664Z,18.50
2023-05-10T14:41:45.640Z,18.60
2023-05-10T14:44:12.634Z,18.50
2023-05-10T14:46:40.531Z,18.40
2023-05-10T14:49:07.542Z,18.20
2023-05-10T14:51:34.910Z,18.20
2023-05-10T14:54:05.023Z,18.20
2023-05-10T14:56:33.400Z,18.00
2023-05-10T14:59:01.192Z,17.90
2023-05-10T15:01:28.928Z,17.90
2023-05-10T15:03:56.369Z,17.90
2023-05-10T15:06:33.053Z,17.90
2023-05-10T15:09:00.095Z,18.00
2023-05-10T15:11:27.041Z,18.10
2023-05-10T15:13:54.459Z,18.20
2023-05-10T15:16:21.702Z,18.40
2023-05-10T15:18:49.484Z,18.30
2023-05-10T15:21:16.366Z,18.30
2023-05-10T15:23:43.245Z,18.40
2023-05-10T15:26:10.112Z,18.30
2023-05-10T15:28:36.990Z,18.30
2023-05-10T15:31:04.074Z,18.30
2023-05-10T15:33:31.051Z,18.20
2023-05-10T15:35:58.132Z,18.20
2023-05-10T15:38:24.991Z,18.10
2023-05-10T15:40:52.037Z,18.10
2023-05-10T15:43:19.006Z,18.20
2023-05-10T15:45:45.780Z,18.20
2023-05-10T15:48:13.237Z,18.30
2023-05-10T15:50:41.264Z,18.30
2023-05-10T15:53:08.161Z,18.30
2023-05-10T15:55:35.521Z,18.30
2023-05-10T15:58:02.452Z,18.20
2023-05-10T16:00:29.677Z,18.20
2023-05-10T16:02:56.618Z,18.20
2023-05-10T16:05:24.473Z,18.20
2023-05-10T16:07:51.498Z,18.20
2023-05-10T16:10:18.510Z,18.30
2023-05-10T16:12:45.367Z,18.30
2023-05-10T16:15:12.308Z,18.40
2023-05-10T16:17:39.319Z,18.50
2023-05-10T16:20:07.027Z,18.50
2023-05-10T16:22:34.196Z,18.50
2023-05-10T16:25:01.199Z,18.50
2023-05-10T16:27:30.382Z,18.50
2023-05-10T16:29:57.319Z,18.50
2023-05-10T16:32:24.326Z,18.60
2023-05-10T16:34:53.298Z,18.50
2023-05-10T16:37:20.183Z,18.50
2023-05-10T16:39:47.081Z,18.40
2023-05-10T16:42:14.326Z,18.30
2023-05-10T16:44:41.507Z,18.20
2023-05-10T16:47:08.718Z,18.20
2023-05-10T16:49:37.243Z,18.10
2023-05-10T16:52:04.144Z,18.10
2023-05-10T16:54:31.013Z,18.00
2023-05-10T16:56:57.912Z,17.90
2023-05-10T16:59:24.720Z,17.80
2023-05-10T17:01:53.179Z,17.60
2023-05-10T17:04:20.362Z,17.50
2023-05-10T17:06:47.206Z,17.50
2023-05-10T17:09:14.209Z,17.50
2023-05-10T17:11:42.174Z,17.50
2023-05-10T17:14:10.130Z,17.50
2023-05-10T17:16:37.236Z,17.40
2023-05-10T17:19:04.303Z,17.40
2023-05-10T17:21:32.164Z,17.40
2023-05-10T17:23:59.217Z,17.30
2023-05-10T17:26:27.588Z,17.30
2023-05-10T17:28:54.905Z,17.30
2023-05-10T17:31:21.986Z,17.30
2023-05-10T17:33:48.863Z,17.20
2023-05-10T17:36:15.935Z,17.20
2023-05-10T17:38:43.443Z,17.20
2023-05-10T17:41:10.493Z,17.20
2023-05-10T17:43:37.381Z,17.20
2023-05-10T17:46:04.481Z,17.00
2023-05-10T17:48:31.765Z,17.00
2023-05-10T17:50:58.639Z,16.90
2023-05-10T17:53:25.687Z,16.80
2023-05-10T17:55:59.003Z,16.70
2023-05-10T17:58:25.882Z,16.60
2023-05-10T18:00:53.308Z,16.50
2023-05-10T18:03:20.441Z,16.50
2023-05-10T18:05:48.031Z,16.40
2023-05-10T18:08:15.144Z,16.30
2023-05-10T18:10:42.030Z,16.20
2023-05-10T18:13:09.376Z,16.10
2023-05-10T18:15:36.455Z,16.10
2023-05-10T18:18:04.617Z,16.00
2023-05-10T18:20:32.219Z,16.00
2023-05-10T18:22:59.127Z,15.90
2023-05-10T18:25:26.142Z,15.90
2023-05-10T18:27:53.082Z,15.80
2023-05-10T18:30:20.054Z,15.70
2023-05-10T18:32:47.282Z,15.70
2023-05-10T18:35:14.255Z,15.50
2023-05-10T18:37:41.385Z,15.40
2023-05-10T18:40:14.794Z,15.40
2023-05-10T18:42:42.064Z,15.20
2023-05-10T18:45:09.324Z,15.10
2023-05-10T18:47:36.274Z,15.00
2023-05-10T18:50:05.359Z,14.90
2023-05-10T18:52:32.436Z,14.90
2023-05-10T18:54:59.532Z,14.80
2023-05-10T18:57:26.470Z,14.80
2023-05-10T18:59:53.345Z,14.80
2023-05-10T19:02:20.556Z,14.70
2023-05-10T19:04:47.632Z,14.60
2023-05-10T19:07:14.609Z,14.60
2023-05-10T19:09:41.547Z,14.40
2023-05-10T19:12:08.874Z,14.20
2023-05-10T19:14:35.836Z,14.10
2023-05-10T19:17:03.642Z,14.10
2023-05-10T19:19:31.961Z,13.90
2023-05-10T19:21:58.982Z,13.90
2023-05-10T19:24:26.023Z,13.70
2023-05-10T19:26:53.262Z,13.60
2023-05-10T19:29:20.155Z,13.50
2023-05-10T19:31:47.181Z,13.40
2023-05-10T19:34:14.190Z,13.30
2023-05-10T19:36:41.080Z,13.20
2023-05-10T19:39:08.061Z,13.10
2023-05-10T19:41:34.963Z,13.00
2023-05-10T19:44:01.966Z,13.00
2023-05-10T19:46:29.526Z,12.80
2023-05-10T19:48:56.500Z,12.70
2023-05-10T19:51:23.378Z,12.60
2023-05-10T19:53:50.322Z,12.50
2023-05-10T19:56:18.408Z,12.40
2023-05-10T19:58:45.537Z,12.40
2023-05-10T20:01:13.064Z,12.30
2023-05-10T20:03:40.069Z,12.20
2023-05-10T20:06:06.960Z,12.10
2023-05-10T20:08:33.954Z,12.00
2023-05-10T20:11:02.929Z,11.90
2023-05-10T20:13:30.051Z,11.80
2023-05-10T20:15:58.169Z,11.90
2023-05-10T20:18:25.844Z,11.80
2023-05-10T20:20:57.527Z,11.70
2023-05-10T20:23:24.634Z,11.60
2023-05-10T20:25:52.230Z,11.50
2023-05-10T20:28:25.394Z,11.50
2023-05-10T20:30:54.087Z,11.50
2023-05-10T20:33:24.709Z,11.40
2023-05-10T20:35:52.394Z,11.40
2023-05-10T20:38:19.399Z,11.30
2023-05-10T20:40:47.254Z,11.20
2023-05-10T20:43:14.113Z,11.20
2023-05-10T20:45:41.136Z,11.10
2023-05-10T20:48:08.611Z,11.10
2023-05-10T20:50:35.663Z,11.10
2023-05-10T20:53:02.568Z,11.10
2023-05-10T20:55:29.466Z,11.10
2023-05-10T20:57:56.367Z,11.00
2023-05-10T21:00:23.214Z,10.90
2023-05-10T21:02:50.335Z,10.80
2023-05-10T21:05:18.479Z,10.80
2023-05-10T21:07:45.231Z,10.70
2023-05-10T21:10:12.391Z,10.50
2023-05-10T21:12:39.295Z,10.50
2023-05-10T21:15:06.930Z,10.50
2023-05-10T21:17:33.859Z,10.40
2023-05-10T21:20:00.916Z,10.30
2023-05-10T21:22:27.858Z,10.20
2023-05-10T21:24:54.734Z,10.10
2023-05-10T21:27:21.645Z,9.90
2023-05-10T21:29:48.469Z,9.80
2023-05-10T21:32:15.377Z,9.80
2023-05-10T21:34:42.674Z,9.70
2023-05-10T21:37:09.548Z,9.60
2023-05-10T21:39:36.374Z,9.60
2023-05-10T21:42:04.005Z,9.50
2023-05-10T21:44:32.041Z,9.50
2023-05-10T21:46:58.848Z,9.40
2023-05-10T21:49:25.910Z,9.30
2023-05-10T21:51:52.904Z,9.40
2023-05-10T21:54:19.837Z,9.30
2023-05-10T21:56:47.578Z,9.20
2023-05-10T21:59:14.449Z,9.20
2023-05-10T22:01:41.939Z,9.10
2023-05-10T22:04:08.915Z,9.10
2023-05-10T22:06:36.080Z,9.00
2023-05-10T22:09:02.960Z,9.00
2023-05-10T22:11:30.350Z,9.10
2023-05-10T22:13:58.145Z,9.10
2023-05-10T22:16:25.120Z,9.00
2023-05-10T22:18:54.154Z,9.00
2023-05-10T22:21:21.446Z,9.10
2023-05-10T22:23:48.380Z,9.00
2023-05-10T22:26:15.320Z,9.00
2023-05-10T22:28:42.352Z,8.90
2023-05-10T22:31:11.545Z,8.90
2023-05-10T22:33:38.783Z,8.80
2023-05-10T22:36:06.651Z,8.90
2023-05-10T22:38:33.419Z,8.90
2023-05-10T22:41:00.401Z,8.90
2023-05-10T22:43:27.290Z,8.80
2023-05-10T22:45:54.362Z,8.80
2023-05-10T22:48:22.227Z,8.80
2023-05-10T22:50:49.189Z,8.80
2023-05-10T22:53:16.406Z,8.70
2023-05-10T22:55:43.443Z,8.70
2023-05-10T22:58:10.534Z,8.70
2023-05-10T23:00:38.188Z,8.70
2023-05-10T23:03:06.618Z,8.70
2023-05-10T23:05:33.560Z,8.60
2023-05-10T23:08:00.688Z,8.60
2023-05-10T23:10:27.765Z,8.60
2023-05-10T23:12:56.132Z,8.60
2023-05-10T23:15:23.192Z,8.60
2023-05-10T23:17:50.466Z,8.50
2023-05-10T23:20:17.546Z,8.40
2023-05-10T23:22:44.977Z,8.40
2023-05-10T23:25:12.000Z,8.40
2023-05-10T23:27:39.412Z,8.40
2023-05-10T23:30:09.582Z,8.40
2023-05-10T23:32:36.573Z,8.40
2023-05-10T23:35:03.609Z,8.30
2023-05-10T23:37:30.562Z,8.20
2023-05-10T23:39:57.527Z,8.10
2023-05-10T23:42:24.358Z,8.10
2023-05-10T23:44:52.363Z,8.10
2023-05-10T23:47:19.126Z,8.00
2023-05-10T23:49:46.075Z,8.00
2023-05-10T23:52:13.068Z,8.00
2023-05-10T23:54:40.030Z,7.90
2023-05-10T23:57:06.988Z,8.00
2023-05-10T23:59:33.933Z,7.90
